createdAt,value
2019-04-14T00:02:40.775Z,65.90
2019-04-14T00:05:14.687Z,66.50
2019-04-14T00:07:44.934Z,66.70
2019-04-14T00:10:16.104Z,65.50
2019-04-14T00:12:46.938Z,66.00
2019-04-14T00:15:25.901Z,65.70
2019-04-14T00:17:48.129Z,65.60
2019-04-14T00:20:18.593Z,65.40
2019-04-14T00:22:49.057Z,65.20
2019-04-14T00:25:19.478Z,65.60
2019-04-14T00:27:50.000Z,65.80
2019-04-14T00:30:21.206Z,66.00
2019-04-14T00:32:55.167Z,66.30
2019-04-14T00:35:36.927Z,66.10
2019-04-14T00:38:28.242Z,66.60
2019-04-14T00:41:09.395Z,66.20
2019-04-14T00:43:47.097Z,66.30
2019-04-14T00:46:23.953Z,65.60
2019-04-14T00:48:53.967Z,67.20
2019-04-14T00:51:24.502Z,67.50
2019-04-14T00:53:54.154Z,67.70
2019-04-14T00:56:23.754Z,67.10
2019-04-14T00:58:53.921Z,67.30
2019-04-14T01:01:24.376Z,67.30
2019-04-14T01:03:54.763Z,67.60
2019-04-14T01:06:25.080Z,67.40
2019-04-14T01:08:55.425Z,67.50
2019-04-14T01:11:25.051Z,67.60
2019-04-14T01:13:55.076Z,67.60
2019-04-14T01:16:25.400Z,67.50
2019-04-14T01:18:56.465Z,67.20
2019-04-14T01:21:26.362Z,67.40
2019-04-14T01:23:56.611Z,67.30
2019-04-14T01:26:26.739Z,67.20
2019-04-14T01:28:56.806Z,67.30
2019-04-14T01:31:27.357Z,67.50
2019-04-14T01:33:57.615Z,67.50
2019-04-14T01:36:27.717Z,67.50
2019-04-14T01:38:58.161Z,67.50
2019-04-14T01:41:28.224Z,67.50
2019-04-14T01:43:58.247Z,67.60
2019-04-14T01:46:31.111Z,67.70
2019-04-14T01:49:00.624Z,68.10
2019-04-14T01:51:39.585Z,68.20
2019-04-14T01:54:21.322Z,67.90
2019-04-14T01:57:13.208Z,67.50
2019-04-14T01:59:43.803Z,68.40
2019-04-14T02:02:16.283Z,69.20
2019-04-14T02:04:46.453Z,69.60
2019-04-14T02:07:16.639Z,70.20
2019-04-14T02:09:46.879Z,70.30
2019-04-14T02:12:17.024Z,71.10
2019-04-14T02:14:47.398Z,72.10
2019-04-14T02:17:17.785Z,72.70
2019-04-14T02:19:48.104Z,73.00
2019-04-14T02:22:18.155Z,73.40
2019-04-14T02:24:48.169Z,73.50
2019-04-14T02:27:18.829Z,73.60
2019-04-14T02:29:49.500Z,74.10
2019-04-14T02:32:49.510Z,73.80
2019-04-14T02:37:58.565Z,74.10
2019-04-14T02:43:06.914Z,74.70
2019-04-14T02:45:33.184Z,75.20
2019-04-14T02:48:16.712Z,75.50
2019-04-14T02:53:01.880Z,74.70
2019-04-14T02:55:21.615Z,74.60
2019-04-14T02:58:04.426Z,74.20
2019-04-14T03:00:31.804Z,73.60
2019-04-14T03:02:56.294Z,72.80
2019-04-14T03:05:34.267Z,73.30
2019-04-14T03:10:39.862Z,72.20
2019-04-14T03:13:13.102Z,71.40
2019-04-14T03:15:43.867Z,71.20
2019-04-14T03:21:54.019Z,70.80
2019-04-14T03:24:12.798Z,70.40
2019-04-14T03:27:24.954Z,70.40
2019-04-14T03:42:22.918Z,69.60
2019-04-14T03:44:48.649Z,69.50
2019-04-14T03:47:22.095Z,69.70
2019-04-14T03:49:48.453Z,69.50
2019-04-14T03:52:27.597Z,69.80
2019-04-14T03:54:48.067Z,70.20
2019-04-14T03:56:56.016Z,69.80
2019-04-14T03:59:26.111Z,70.00
2019-04-14T04:01:56.612Z,70.30
2019-04-14T04:04:27.482Z,69.90
2019-04-14T04:06:57.536Z,70.10
2019-04-14T04:09:34.367Z,70.00
2019-04-14T04:12:05.176Z,70.00
2019-04-14T04:14:35.684Z,70.10
2019-04-14T04:17:18.989Z,70.20
2019-04-14T04:19:59.915Z,70.10
2019-04-14T04:22:47.653Z,69.70
2019-04-14T04:25:31.165Z,68.80
2019-04-14T04:28:25.707Z,69.50
2019-04-14T04:31:00.430Z,69.30
2019-04-14T04:33:37.291Z,69.60
2019-04-14T04:36:14.683Z,69.50
2019-04-14T04:38:57.455Z,69.40
2019-04-14T04:41:27.535Z,69.60
2019-04-14T04:43:58.184Z,69.40
2019-04-14T04:46:28.770Z,69.30
2019-04-14T04:49:08.199Z,69.60
2019-04-14T04:51:29.626Z,69.70
2019-04-14T04:53:59.443Z,69.50
2019-04-14T04:56:29.747Z,69.50
2019-04-14T04:58:59.623Z,69.60
2019-04-14T05:01:29.589Z,69.60
2019-04-14T05:04:00.330Z,69.40
2019-04-14T05:07:07.848Z,69.70
2019-04-14T05:10:08.882Z,69.40
2019-04-14T05:12:45.684Z,69.60
2019-04-14T05:15:34.312Z,69.30
2019-04-14T05:18:04.962Z,69.30
2019-04-14T05:20:35.557Z,69.50
2019-04-14T05:23:05.932Z,69.60
2019-04-14T05:25:36.557Z,69.30
2019-04-14T05:28:06.948Z,69.20
2019-04-14T05:30:37.179Z,68.60
2019-04-14T05:33:07.458Z,69.50
2019-04-14T05:35:38.009Z,69.20
2019-04-14T05:38:08.456Z,68.80
2019-04-14T05:40:38.575Z,67.80
2019-04-14T05:43:08.877Z,68.60
2019-04-14T05:45:39.538Z,68.20
2019-04-14T05:48:09.799Z,67.90
2019-04-14T05:50:40.085Z,67.90
2019-04-14T05:53:10.983Z,67.50
2019-04-14T05:55:41.626Z,66.40
2019-04-14T05:58:12.195Z,64.40
2019-04-14T06:00:44.673Z,63.50
2019-04-14T06:03:14.589Z,61.50
2019-04-14T06:05:45.050Z,60.40
2019-04-14T06:08:14.731Z,58.50
2019-04-14T06:10:44.236Z,56.30
2019-04-14T06:13:13.852Z,54.80
2019-04-14T06:15:43.401Z,54.50
2019-04-14T06:18:13.054Z,53.50
2019-04-14T06:20:42.615Z,53.00
2019-04-14T06:23:12.207Z,52.30
2019-04-14T06:25:41.780Z,52.00
2019-04-14T06:28:11.386Z,51.90
2019-04-14T06:30:58.245Z,51.60
2019-04-14T06:33:55.880Z,51.10
2019-04-14T06:36:44.291Z,49.40
2019-04-14T06:39:23.024Z,49.10
2019-04-14T06:41:52.604Z,49.30
2019-04-14T06:44:22.492Z,48.70
2019-04-14T06:46:52.090Z,48.90
2019-04-14T06:49:21.780Z,47.90
2019-04-14T06:51:51.857Z,45.60
2019-04-14T06:54:21.404Z,41.40
2019-04-14T06:56:51.300Z,42.80
2019-04-14T06:59:20.884Z,44.30
2019-04-14T07:01:50.537Z,45.00
2019-04-14T07:04:20.103Z,44.20
2019-04-14T07:06:51.408Z,42.90
2019-04-14T07:09:21.361Z,43.50
2019-04-14T07:11:51.182Z,43.60
2019-04-14T07:14:20.748Z,41.90
2019-04-14T07:16:51.485Z,41.40
2019-04-14T07:19:21.127Z,40.40
2019-04-14T07:21:50.750Z,40.40
2019-04-14T07:24:20.712Z,40.30
2019-04-14T07:26:50.289Z,38.30
2019-04-14T07:29:19.863Z,40.30
2019-04-14T07:32:08.363Z,39.90
2019-04-14T07:35:05.948Z,40.30
2019-04-14T07:37:50.336Z,38.80
2019-04-14T07:40:28.745Z,42.20
2019-04-14T07:43:08.446Z,41.70
2019-04-14T07:46:12.211Z,40.90
2019-04-14T07:48:53.726Z,42.00
2019-04-14T07:51:37.528Z,42.90
2019-04-14T07:54:28.751Z,41.40
2019-04-14T07:57:09.540Z,41.80
2019-04-14T07:59:50.242Z,39.30
2019-04-14T08:02:38.864Z,39.90
2019-04-14T08:05:14.531Z,39.50
2019-04-14T08:07:44.794Z,38.80
2019-04-14T08:10:14.463Z,38.40
2019-04-14T08:12:44.106Z,38.00
2019-04-14T08:15:14.184Z,36.00
2019-04-14T08:17:44.056Z,36.10
2019-04-14T08:20:26.463Z,34.60
2019-04-14T08:22:45.452Z,35.80
2019-04-14T08:25:15.371Z,32.00
2019-04-14T08:27:44.998Z,31.90
2019-04-14T08:30:14.851Z,31.60
2019-04-14T08:32:44.477Z,30.90
2019-04-14T08:35:14.040Z,29.10
2019-04-14T08:37:43.643Z,28.10
2019-04-14T08:40:13.298Z,28.20
2019-04-14T08:43:01.810Z,28.40
2019-04-14T08:45:40.226Z,28.00
2019-04-14T08:48:18.857Z,27.40
2019-04-14T08:51:07.581Z,27.70
2019-04-14T08:53:47.412Z,26.90
2019-04-14T08:56:37.942Z,26.80
2019-04-14T08:59:26.730Z,27.70
2019-04-14T09:02:12.133Z,25.10
2019-04-14T09:04:47.774Z,24.80
2019-04-14T09:07:36.247Z,25.00
2019-04-14T09:10:09.424Z,24.50
2019-04-14T09:12:40.448Z,23.40
2019-04-14T09:15:10.260Z,24.80
2019-04-14T09:17:39.911Z,24.30
2019-04-14T09:20:09.529Z,25.00
2019-04-14T09:22:39.143Z,24.40
2019-04-14T09:25:08.784Z,24.20
2019-04-14T09:27:38.405Z,24.70
2019-04-14T09:30:08.645Z,24.70
2019-04-14T09:32:38.271Z,24.50
2019-04-14T09:35:08.179Z,24.20
2019-04-14T09:37:37.815Z,24.30
2019-04-14T09:40:07.771Z,24.00
2019-04-14T09:42:37.660Z,22.80
2019-04-14T09:45:07.827Z,23.60
2019-04-14T09:47:37.419Z,23.30
2019-04-14T09:50:07.126Z,24.10
2019-04-14T09:52:37.024Z,23.60
2019-04-14T09:55:07.083Z,21.50
2019-04-14T09:57:36.700Z,21.30
2019-04-14T10:00:08.366Z,21.30
2019-04-14T10:02:38.048Z,20.50
2019-04-14T10:05:07.837Z,20.50
2019-04-14T10:07:37.504Z,19.20
2019-04-14T10:10:07.279Z,17.40
2019-04-14T10:12:37.406Z,16.00
2019-04-14T10:15:10.636Z,15.80
2019-04-14T10:17:40.261Z,17.70
2019-04-14T10:20:09.951Z,15.50
2019-04-14T10:22:39.612Z,15.90
2019-04-14T10:25:09.346Z,16.30
2019-04-14T10:27:39.003Z,16.60
2019-04-14T10:30:09.796Z,15.70
2019-04-14T10:32:39.429Z,14.60
2019-04-14T10:35:09.732Z,14.30
2019-04-14T10:37:39.393Z,13.80
2019-04-14T10:40:09.230Z,12.60
2019-04-14T10:42:38.846Z,12.10
2019-04-14T10:45:08.403Z,13.00
2019-04-14T10:47:38.009Z,13.30
2019-04-14T10:50:07.932Z,13.70
2019-04-14T10:52:37.590Z,13.40
2019-04-14T10:55:07.391Z,13.10
2019-04-14T10:57:37.319Z,12.60
2019-04-14T11:00:09.791Z,11.90
2019-04-14T11:02:39.682Z,11.50
2019-04-14T11:05:09.382Z,11.00
2019-04-14T11:07:38.917Z,11.30
2019-04-14T11:10:09.036Z,11.50
2019-04-14T11:12:38.606Z,11.60
2019-04-14T11:15:08.722Z,11.10
2019-04-14T11:17:38.282Z,11.10
2019-04-14T11:20:08.114Z,10.50
2019-04-14T11:22:37.666Z,11.50
2019-04-14T11:25:10.419Z,10.90
2019-04-14T11:27:43.023Z,12.00
2019-04-14T11:30:16.224Z,11.00
2019-04-14T11:32:54.029Z,11.30
2019-04-14T11:35:45.704Z,12.70
2019-04-14T11:38:28.036Z,13.50
2019-04-14T11:40:59.942Z,13.20
2019-04-14T11:43:29.539Z,13.60
2019-04-14T11:45:59.081Z,13.50
2019-04-14T11:48:28.689Z,14.20
2019-04-14T11:50:58.536Z,13.80
2019-04-14T11:53:28.150Z,13.80
2019-04-14T11:55:57.715Z,14.90
2019-04-14T11:58:29.114Z,14.60
2019-04-14T12:01:17.393Z,14.40
2019-04-14T12:04:18.060Z,14.80
2019-04-14T12:07:02.413Z,14.30
2019-04-14T12:09:44.067Z,13.90
2019-04-14T12:12:13.988Z,13.50
2019-04-14T12:14:43.561Z,13.50
2019-04-14T12:17:13.189Z,13.40
2019-04-14T12:19:43.036Z,14.00
2019-04-14T12:22:12.621Z,14.40
2019-04-14T12:24:42.288Z,15.00
2019-04-14T12:27:11.881Z,15.20
2019-04-14T12:29:43.368Z,14.60
2019-04-14T12:32:14.970Z,14.70
2019-04-14T12:34:44.686Z,14.00
2019-04-14T12:37:14.294Z,13.10
2019-04-14T12:39:44.202Z,13.00
2019-04-14T12:42:38.594Z,13.00
2019-04-14T12:45:26.949Z,13.00
2019-04-14T12:48:27.316Z,12.90
2019-04-14T12:51:09.412Z,13.40
2019-04-14T12:53:39.028Z,14.20
2019-04-14T12:56:08.600Z,14.20
2019-04-14T12:58:49.587Z,14.10
2019-04-14T13:01:19.760Z,13.70
2019-04-14T13:03:49.395Z,13.30
2019-04-14T13:06:18.978Z,13.20
2019-04-14T13:08:48.584Z,13.20
2019-04-14T13:11:18.416Z,13.90
2019-04-14T13:13:48.070Z,13.80
2019-04-14T13:16:18.036Z,14.10
2019-04-14T13:18:47.895Z,14.50
2019-04-14T13:21:17.485Z,14.60
2019-04-14T13:23:47.357Z,15.00
2019-04-14T13:26:16.968Z,14.00
2019-04-14T13:28:46.814Z,14.20
2019-04-14T13:31:16.449Z,14.40
2019-04-14T13:33:46.062Z,13.60
2019-04-14T13:36:15.665Z,14.30
2019-04-14T13:38:45.248Z,14.70
2019-04-14T13:41:14.807Z,14.50
2019-04-14T13:43:44.409Z,14.80
2019-04-14T13:46:14.286Z,14.80
2019-04-14T13:48:44.127Z,14.90
2019-04-14T13:51:13.766Z,14.60
2019-04-14T13:53:43.430Z,15.80
2019-04-14T13:56:13.029Z,16.60
2019-04-14T13:58:42.841Z,16.80
2019-04-14T14:01:12.415Z,17.10
2019-04-14T14:03:42.018Z,17.50
2019-04-14T14:06:11.564Z,17.80
2019-04-14T14:08:41.246Z,17.80
2019-04-14T14:11:19.215Z,17.80
2019-04-14T14:13:57.799Z,18.20
2019-04-14T14:16:53.718Z,18.50
2019-04-14T14:19:27.669Z,18.40
2019-04-14T14:22:10.847Z,18.70
2019-04-14T14:24:49.695Z,18.50
2019-04-14T14:27:19.290Z,19.00
2019-04-14T14:29:48.903Z,19.20
2019-04-14T14:32:30.640Z,18.70
2019-04-14T14:35:00.213Z,19.40
2019-04-14T14:37:29.837Z,18.80
2019-04-14T14:39:59.448Z,19.30
2019-04-14T14:42:29.040Z,19.00
2019-04-14T14:45:17.595Z,18.30
2019-04-14T14:47:55.572Z,17.00
2019-04-14T14:50:31.933Z,16.90
2019-04-14T14:53:11.558Z,17.00
2019-04-14T14:55:32.753Z,16.50
2019-04-14T14:58:02.639Z,16.90
2019-04-14T15:00:35.513Z,17.20
2019-04-14T15:03:05.168Z,17.50
2019-04-14T15:05:34.739Z,17.60
2019-04-14T15:08:04.341Z,18.40
2019-04-14T15:10:33.946Z,18.90
2019-04-14T15:13:03.544Z,20.20
2019-04-14T15:15:33.132Z,21.80
2019-04-14T15:18:02.779Z,23.10
2019-04-14T15:20:32.443Z,25.60
2019-04-14T15:23:02.314Z,25.40
2019-04-14T15:25:32.252Z,25.60
2019-04-14T15:28:01.828Z,26.50
2019-04-14T15:30:31.409Z,29.60
2019-04-14T15:33:00.969Z,32.50
2019-04-14T15:35:30.864Z,35.20
2019-04-14T15:38:00.475Z,37.80
2019-04-14T15:40:30.272Z,37.90
2019-04-14T15:42:59.918Z,36.30
2019-04-14T15:45:29.811Z,36.20
2019-04-14T15:47:59.445Z,36.90
2019-04-14T15:50:29.062Z,36.50
2019-04-14T15:52:58.660Z,38.50
2019-04-14T15:55:28.575Z,36.40
2019-04-14T15:58:03.830Z,33.10
2019-04-14T16:00:50.965Z,30.30
2019-04-14T16:03:39.483Z,30.30
2019-04-14T16:06:37.176Z,30.50
2019-04-14T16:09:20.201Z,29.00
2019-04-14T16:12:14.883Z,31.40
2019-04-14T16:14:53.296Z,32.10
2019-04-14T16:17:47.875Z,32.80
2019-04-14T16:20:20.807Z,32.20
2019-04-14T16:22:50.381Z,32.70
2019-04-14T16:25:20.938Z,33.50
2019-04-14T16:28:09.698Z,33.90
2019-04-14T16:30:56.782Z,35.60
2019-04-14T16:33:31.379Z,35.70
2019-04-14T16:36:01.196Z,36.70
2019-04-14T16:38:30.846Z,37.90
2019-04-14T16:41:00.499Z,37.90
2019-04-14T16:43:30.092Z,36.50
2019-04-14T16:45:59.670Z,35.60
2019-04-14T16:48:29.259Z,37.50
2019-04-14T16:50:59.957Z,38.30
2019-04-14T16:53:32.284Z,38.50
2019-04-14T16:56:35.743Z,38.70
2019-04-14T16:59:09.016Z,40.60
2019-04-14T17:01:40.803Z,41.80
2019-04-14T17:04:10.771Z,40.90
2019-04-14T17:06:40.326Z,39.50
2019-04-14T17:09:10.388Z,39.70
2019-04-14T17:11:39.960Z,39.40
2019-04-14T17:14:14.833Z,39.90
2019-04-14T17:17:06.351Z,40.00
2019-04-14T17:19:43.385Z,40.40
2019-04-14T17:22:40.936Z,40.60
2019-04-14T17:25:25.259Z,40.80
2019-04-14T17:28:16.964Z,40.50
2019-04-14T17:30:56.340Z,41.40
2019-04-14T17:33:44.865Z,42.50
2019-04-14T17:36:42.188Z,43.20
2019-04-14T17:39:33.740Z,43.80
2019-04-14T17:42:17.640Z,45.30
2019-04-14T17:45:06.188Z,45.80
2019-04-14T17:47:55.182Z,45.10
2019-04-14T17:50:46.390Z,46.10
2019-04-14T17:53:37.915Z,47.00
2019-04-14T17:56:17.801Z,46.50
2019-04-14T17:59:06.332Z,47.00
2019-04-14T18:01:54.822Z,47.80
2019-04-14T18:04:45.529Z,47.50
2019-04-14T18:07:32.651Z,47.90
2019-04-14T18:10:21.154Z,47.80
2019-04-14T18:13:05.967Z,47.10
2019-04-14T18:16:03.545Z,48.10
2019-04-14T18:19:04.210Z,47.60
2019-04-14T18:21:33.818Z,47.60
2019-04-14T18:24:03.709Z,47.20
2019-04-14T18:26:33.338Z,46.80
2019-04-14T18:29:20.574Z,45.90
2019-04-14T18:32:05.415Z,47.00
2019-04-14T18:34:59.712Z,46.00
2019-04-14T18:37:43.643Z,46.20
2019-04-14T18:40:17.220Z,45.90
2019-04-14T18:42:56.000Z,45.50
2019-04-14T18:45:32.368Z,45.70
2019-04-14T18:48:16.275Z,45.80
2019-04-14T18:51:10.570Z,45.50
2019-04-14T18:54:02.386Z,44.60
2019-04-14T18:56:49.185Z,45.70
2019-04-14T18:59:32.143Z,46.10
2019-04-14T19:02:01.965Z,47.10
2019-04-14T19:04:33.420Z,46.90
2019-04-14T19:07:03.000Z,47.50
2019-04-14T19:09:32.890Z,48.60
2019-04-14T19:12:21.482Z,47.90
2019-04-14T19:14:54.620Z,48.70
2019-04-14T19:17:45.903Z,51.30
2019-04-14T19:20:16.737Z,51.10
2019-04-14T19:22:46.377Z,52.00
2019-04-14T19:25:16.232Z,52.30
2019-04-14T19:27:46.101Z,51.90
2019-04-14T19:30:15.862Z,51.60
2019-04-14T19:32:45.468Z,51.10
2019-04-14T19:35:15.016Z,51.00
2019-04-14T19:37:44.890Z,50.80
2019-04-14T19:40:14.548Z,51.10
2019-04-14T19:42:44.140Z,50.70
2019-04-14T19:45:16.291Z,51.10
2019-04-14T19:47:45.871Z,50.90
2019-04-14T19:50:15.721Z,50.70
2019-04-14T19:52:45.349Z,51.10
2019-04-14T19:55:20.709Z,50.20
2019-04-14T19:57:46.136Z,51.40
2019-04-14T20:00:15.981Z,51.30
2019-04-14T20:02:45.511Z,51.60
2019-04-14T20:05:15.408Z,52.30
2019-04-14T20:07:44.944Z,51.70
2019-04-14T20:10:14.757Z,51.60
2019-04-14T20:12:44.374Z,51.00
2019-04-14T20:15:16.798Z,51.30
2019-04-14T20:18:17.388Z,51.90
2019-04-14T20:21:02.151Z,51.80
2019-04-14T20:23:45.036Z,50.70
2019-04-14T20:26:48.678Z,50.60
2019-04-14T20:29:27.659Z,52.10
2019-04-14T20:32:16.247Z,52.30
2019-04-14T20:34:45.888Z,53.00
2019-04-14T20:37:15.557Z,53.60
2019-04-14T20:39:45.674Z,53.90
2019-04-14T20:42:15.355Z,54.30
2019-04-14T20:44:45.137Z,54.00
2019-04-14T20:47:14.904Z,53.60
2019-04-14T20:49:44.437Z,53.90
2019-04-14T20:52:14.307Z,54.00
2019-04-14T20:54:43.922Z,53.70
2019-04-14T20:57:13.764Z,53.90
2019-04-14T20:59:43.314Z,53.00
2019-04-14T21:02:41.194Z,54.00
2019-04-14T21:05:29.803Z,54.30
2019-04-14T21:08:30.329Z,55.80
2019-04-14T21:11:07.107Z,54.70
2019-04-14T21:14:01.424Z,55.80
2019-04-14T21:16:44.687Z,55.20
2019-04-14T21:19:21.248Z,55.20
2019-04-14T21:22:12.758Z,54.90
2019-04-14T21:25:07.208Z,54.60
2019-04-14T21:28:01.456Z,54.70
2019-04-14T21:30:55.879Z,54.00
2019-04-14T21:33:53.308Z,54.40
2019-04-14T21:36:30.587Z,53.50
2019-04-14T21:39:14.525Z,53.50
2019-04-14T21:41:45.598Z,53.50
2019-04-14T21:44:15.166Z,53.60
2019-04-14T21:46:44.730Z,53.10
2019-04-14T21:49:14.290Z,53.20
2019-04-14T21:52:06.223Z,54.00
2019-04-14T21:54:35.845Z,54.30
2019-04-14T21:57:32.238Z,54.20
2019-04-14T22:00:23.548Z,54.70
2019-04-14T22:03:10.438Z,54.60
2019-04-14T22:05:49.077Z,54.60
2019-04-14T22:08:25.152Z,54.30
2019-04-14T22:11:00.005Z,54.00
2019-04-14T22:13:29.573Z,53.00
2019-04-14T22:15:59.375Z,53.80
2019-04-14T22:18:28.931Z,53.50
2019-04-14T22:20:58.530Z,53.60
2019-04-14T22:23:28.388Z,53.90
2019-04-14T22:25:58.200Z,53.50
2019-04-14T22:28:27.917Z,54.30
2019-04-14T22:30:57.525Z,55.70
2019-04-14T22:33:27.126Z,56.40
2019-04-14T22:35:56.803Z,56.10
2019-04-14T22:38:26.954Z,55.80
2019-04-14T22:40:56.798Z,55.50
2019-04-14T22:43:26.380Z,56.40
2019-04-14T22:45:55.964Z,56.30
2019-04-14T22:48:25.529Z,56.40
2019-04-14T22:50:55.140Z,56.40
2019-04-14T22:53:24.676Z,56.10
2019-04-14T22:55:54.633Z,55.10
2019-04-14T22:58:24.207Z,56.40
2019-04-14T23:01:12.727Z,57.20
2019-04-14T23:04:04.228Z,57.20
2019-04-14T23:06:52.728Z,57.50
2019-04-14T23:09:29.871Z,57.00
2019-04-14T23:12:36.573Z,57.40
2019-04-14T23:15:18.572Z,57.30
2019-04-14T23:18:13.146Z,57.90
2019-04-14T23:20:55.879Z,57.90
2019-04-14T23:23:44.366Z,57.60
2019-04-14T23:26:13.934Z,56.50
2019-04-14T23:28:44.088Z,57.20
2019-04-14T23:31:13.638Z,56.90
2019-04-14T23:33:43.280Z,57.10
2019-04-14T23:36:12.826Z,57.00
2019-04-14T23:38:42.437Z,57.00
2019-04-14T23:41:12.025Z,56.30
2019-04-14T23:43:41.637Z,56.70
2019-04-14T23:46:11.224Z,56.70
2019-04-14T23:48:40.813Z,56.50
2019-04-14T23:51:11.431Z,56.50
2019-04-14T23:53:41.039Z,55.20
2019-04-14T23:56:10.872Z,56.50
2019-04-14T23:58:40.460Z,56.50
